< < Back
Terminal Aerodrome Forecast


Current Version              Previous Versions:   1  2  3  4  5  6  7  8  9  

Terminal Aerodrome Forecast

210
FTUS44 KBMX 210600 RRA
TAFANB
TAF
KANB 210658Z 2107/2206 00000KT P6SM SCT250
     FM211500 27007KT P6SM SCT040=

Latest METAR

138
SAUS70 KWBC 211600 RRC
MTRANB
METAR KANB 211553Z AUTO 23008KT 10SM CLR 27/18 A3008 RMK AO2 SLP176
T02720183


USA.gov is the U.S. government's official web portal to all federal, state and local government web resources and services.